KCXO/CXO METAR and TAF weather

Enter ICAO airport designator
Station Type Date Time Source
KCXO METAR 2021/09/28 17:17 UTC NOAA

KCXO 281717Z VRB03KT 10SM VCTS CLR 31/23 A2992 RMK AO2 LTG DSNT S AND SW T03060228


Station Type Date Time Source
KCXO Decoded METAR 2021/09/28 17:17 UTC NOAA

LONE STAR EXECUTIVE AIRPORT, TX, United States (KCXO) 30-21N 95-25W 75M
Sep 28, 2021 - 01:17 PM EDT / 2021.09.28 1717 UTC
Wind: Variable at 3 MPH (3 KT):0
Visibility: 10 mile(s):0
Sky conditions: clear
Weather: thunder in the vicinity; Lightning observed
Temperature: 87.1 F (30.6 C)
Heat index: 94.5 F (34.7 C):1
Dew Point: 73.0 F (22.8 C)
Relative Humidity: 63%
Pressure (altimeter): 29.92 in. Hg (1013 hPa)
ob: KCXO 281717Z VRB03KT 10SM VCTS CLR 31/23 A2992 RMK AO2 LTG DSNT S AND SW T03060228
cycle: 17

Station Type Date Time Source
KCXO TAF 2021/09/28 14:16 UTC NOAA

TAF
AMD KCXO 281414Z 2814/2912 00000KT P6SM BKN018
TEMPO 2814/2815 00000KT 2SM BR BKN009 BKN017
FM281530 15007KT P6SM VCTS SCT020CB BKN040
TEMPO 2819/2822 4SM TSRA BR BKN020CB
FM282200 14010KT P6SM SCT020 BKN250
FM290600 VRB04KT P6SM VCTS BKN015CB

Example: see airport list